createdAt,value
2024-03-04T00:01:18.355Z,99802.75
2024-03-04T00:03:44.875Z,99803.16
2024-03-04T00:06:11.266Z,99801.63
2024-03-04T00:08:37.676Z,99795.13
2024-03-04T00:11:05.787Z,99806.44
2024-03-04T00:13:32.400Z,99810.13
2024-03-04T00:15:59.118Z,99809.16
2024-03-04T00:18:25.560Z,99805.53
2024-03-04T00:20:51.964Z,99807.09
2024-03-04T00:23:18.377Z,99800.31
2024-03-04T00:25:44.895Z,99810.94
2024-03-04T00:28:12.709Z,99808.84
2024-03-04T00:30:39.168Z,99817.72
2024-03-04T00:33:05.601Z,99812.81
2024-03-04T00:35:32.032Z,99809.38
2024-03-04T00:37:58.480Z,99809.91
2024-03-04T00:40:24.962Z,99816.66
2024-03-04T00:42:52.078Z,99802.19
2024-03-04T00:45:21.508Z,99807.63
2024-03-04T00:47:47.983Z,99812.09
2024-03-04T00:50:14.455Z,99812.41
2024-03-04T00:52:40.956Z,99819.22
2024-03-04T00:55:08.555Z,99814.16
2024-03-04T00:57:34.935Z,99815.41
2024-03-04T01:00:01.550Z,99818.88
2024-03-04T01:02:29.320Z,99818.31
2024-03-04T01:04:55.747Z,99814.75
2024-03-04T01:07:22.197Z,99821.31
2024-03-04T01:09:48.587Z,99825.09
2024-03-04T01:12:15.016Z,99821.78
2024-03-04T01:14:41.453Z,99824.88
2024-03-04T01:17:07.969Z,99821.22
2024-03-04T01:19:35.742Z,99830.25
2024-03-04T01:22:02.223Z,99826.69
2024-03-04T01:24:28.654Z,99823.41
2024-03-04T01:26:55.041Z,99829.81
2024-03-04T01:29:21.470Z,99829.09
2024-03-04T01:31:47.916Z,99825.81
2024-03-04T01:34:14.373Z,99824.22
2024-03-04T01:36:42.129Z,99831.78
2024-03-04T01:39:08.520Z,99835.47
2024-03-04T01:41:36.626Z,99836.78
2024-03-04T01:44:03.453Z,99835.78
2024-03-04T01:46:30.199Z,99836.69
2024-03-04T01:48:56.786Z,99839.91
2024-03-04T01:51:23.298Z,99845.25
2024-03-04T01:53:51.402Z,99837.88
2024-03-04T01:56:17.923Z,99839.97
2024-03-04T01:58:47.868Z,99835.78
2024-03-04T02:01:15.499Z,99839.34
2024-03-04T02:03:42.011Z,99840.22
2024-03-04T02:06:09.034Z,99846.25
2024-03-04T02:08:36.163Z,99849.41
2024-03-04T02:11:05.608Z,99853.06
2024-03-04T02:13:32.786Z,99859.91
2024-03-04T02:15:59.288Z,99863.25
2024-03-04T02:18:25.933Z,99855.88
2024-03-04T02:20:55.993Z,99853.47
2024-03-04T02:23:23.876Z,99856.41
2024-03-04T02:25:54.678Z,99859.94
2024-03-04T02:28:21.506Z,99861.53
2024-03-04T02:30:48.079Z,99861.53
2024-03-04T02:33:16.368Z,99862.25
2024-03-04T02:35:42.979Z,99865.75
2024-03-04T02:38:10.278Z,99868.19
2024-03-04T02:40:38.089Z,99867.75
2024-03-04T02:43:04.630Z,99870.78
2024-03-04T02:45:31.060Z,99883.94
2024-03-04T02:47:57.489Z,99882.53
2024-03-04T02:50:23.931Z,99884.31
2024-03-04T02:52:50.615Z,99893.66
2024-03-04T02:55:17.115Z,99897.50
2024-03-04T02:57:44.914Z,99900.78
2024-03-04T03:00:12.740Z,99896.16
2024-03-04T03:02:39.127Z,99902.06
2024-03-04T03:05:06.063Z,99906.34
2024-03-04T03:07:32.506Z,99904.47
2024-03-04T03:09:59.002Z,99908.28
2024-03-04T03:12:25.425Z,99903.66
2024-03-04T03:14:53.188Z,99911.25
2024-03-04T03:17:19.605Z,99914.53
2024-03-04T03:19:46.087Z,99918.53
2024-03-04T03:22:12.600Z,99924.06
2024-03-04T03:24:38.998Z,99925.91
2024-03-04T03:27:05.402Z,99917.47
2024-03-04T03:29:31.796Z,99926.41
2024-03-04T03:31:59.495Z,99924.47
2024-03-04T03:34:26.124Z,99928.25
2024-03-04T03:36:52.531Z,99931.19
2024-03-04T03:39:18.927Z,99932.56
2024-03-04T03:41:45.384Z,99928.25
2024-03-04T03:44:11.795Z,99939.00
2024-03-04T03:46:38.267Z,99938.31
2024-03-04T03:49:06.253Z,99941.56
2024-03-04T03:51:32.642Z,99940.75
2024-03-04T03:53:59.029Z,99940.94
2024-03-04T03:56:25.473Z,99953.25
2024-03-04T03:58:51.944Z,99947.78
2024-03-04T04:01:18.613Z,99942.75
2024-03-04T04:03:45.163Z,99941.97
2024-03-04T04:06:12.896Z,99951.69
2024-03-04T04:08:40.927Z,99950.69
2024-03-04T04:11:07.377Z,99958.97
2024-03-04T04:13:33.830Z,99965.16
2024-03-04T04:16:00.262Z,99964.03
2024-03-04T04:18:26.693Z,99961.84
2024-03-04T04:20:53.138Z,99961.53
2024-03-04T04:23:20.854Z,99973.09
2024-03-04T04:25:47.432Z,99980.44
2024-03-04T04:28:13.915Z,99985.06
2024-03-04T04:30:40.339Z,99992.66
2024-03-04T04:33:06.906Z,99990.69
2024-03-04T04:35:33.303Z,99998.25
2024-03-04T04:37:59.782Z,99996.63
2024-03-04T04:40:27.524Z,100004.75
2024-03-04T04:42:54.049Z,100003.91
2024-03-04T04:45:21.792Z,99997.84
2024-03-04T04:47:48.363Z,99997.72
2024-03-04T04:50:15.053Z,99997.75
2024-03-04T04:52:41.505Z,100008.84
2024-03-04T04:55:08.415Z,100016.63
2024-03-04T04:57:36.168Z,100023.44
2024-03-04T05:00:02.598Z,100019.22
2024-03-04T05:02:29.329Z,100021.13
2024-03-04T05:04:58.495Z,100028.81
2024-03-04T05:07:25.503Z,100025.63
2024-03-04T05:09:51.991Z,100028.00
2024-03-04T05:12:18.437Z,100021.59
2024-03-04T05:14:47.375Z,100039.03
2024-03-04T05:17:13.904Z,100034.13
2024-03-04T05:19:40.395Z,100048.56
2024-03-04T05:22:07.234Z,100048.69
2024-03-04T05:24:33.682Z,100048.53
2024-03-04T05:27:00.070Z,100052.84
2024-03-04T05:29:26.442Z,100049.47
2024-03-04T05:31:55.031Z,100046.56
2024-03-04T05:34:21.549Z,100047.94
2024-03-04T05:36:47.944Z,100048.66
2024-03-04T05:39:14.482Z,100050.06
2024-03-04T05:41:40.874Z,100048.25
2024-03-04T05:44:07.281Z,100043.25
2024-03-04T05:46:33.727Z,100053.09
2024-03-04T05:49:01.453Z,100057.97
2024-03-04T05:51:27.876Z,100054.53
2024-03-04T05:53:54.396Z,100070.78
2024-03-04T05:56:20.828Z,100073.69
2024-03-04T05:58:47.548Z,100074.91
2024-03-04T06:01:14.645Z,100081.59
2024-03-04T06:03:41.113Z,100088.69
2024-03-04T06:06:08.959Z,100084.97
2024-03-04T06:08:35.393Z,100089.22
2024-03-04T06:11:01.837Z,100085.59
2024-03-04T06:13:28.388Z,100087.97
2024-03-04T06:15:54.848Z,100084.25
2024-03-04T06:18:21.258Z,100089.75
2024-03-04T06:20:47.640Z,100091.88
2024-03-04T06:23:15.457Z,100094.34
2024-03-04T06:25:41.917Z,100101.25
2024-03-04T06:28:08.406Z,100098.09
2024-03-04T06:30:34.861Z,100105.22
2024-03-04T06:33:01.331Z,100107.50
2024-03-04T06:35:27.853Z,100112.91
2024-03-04T06:37:54.257Z,100113.94
2024-03-04T06:40:22.029Z,100128.31
2024-03-04T06:42:48.538Z,100127.91
2024-03-04T06:45:15.030Z,100134.59
2024-03-04T06:47:41.436Z,100137.06
2024-03-04T06:50:08.016Z,100130.69
2024-03-04T06:52:34.503Z,100131.94
2024-03-04T06:55:01.104Z,100134.31
2024-03-04T06:57:31.753Z,100125.88
2024-03-04T06:59:59.648Z,100124.03
2024-03-04T07:02:26.043Z,100137.00
2024-03-04T07:04:52.526Z,100145.00
2024-03-04T07:07:19.027Z,100135.91
2024-03-04T07:09:45.452Z,100148.13
2024-03-04T07:12:11.837Z,100145.19
2024-03-04T07:14:39.628Z,100147.91
2024-03-04T07:17:05.995Z,100156.50
2024-03-04T07:19:32.423Z,100148.69
2024-03-04T07:21:58.890Z,100153.72
2024-03-04T07:24:25.363Z,100149.28
2024-03-04T07:26:51.829Z,100161.16
2024-03-04T07:29:26.945Z,100159.19
2024-03-04T07:31:59.427Z,100158.78
2024-03-04T07:34:25.895Z,100167.25
2024-03-04T07:36:52.323Z,100153.44
2024-03-04T07:39:18.724Z,100160.31
2024-03-04T07:41:45.362Z,100162.13
2024-03-04T07:44:11.819Z,100171.84
2024-03-04T07:46:40.324Z,100174.66
2024-03-04T07:49:09.473Z,100187.31
2024-03-04T07:51:36.071Z,100185.06
2024-03-04T07:54:02.561Z,100189.66
2024-03-04T07:56:29.003Z,100185.69
2024-03-04T07:58:55.389Z,100192.31
2024-03-04T08:01:21.864Z,100188.28
2024-03-04T08:03:48.320Z,100202.00
2024-03-04T08:06:16.059Z,100200.09
2024-03-04T08:08:42.569Z,100194.75
2024-03-04T08:11:09.019Z,100204.78
2024-03-04T08:13:35.763Z,100196.38
2024-03-04T08:16:02.337Z,100202.31
2024-03-04T08:18:28.794Z,100201.50
2024-03-04T08:20:55.226Z,100206.03
2024-03-04T08:23:22.969Z,100205.38
2024-03-04T08:25:49.752Z,100203.38
2024-03-04T08:28:23.567Z,100206.38
2024-03-04T08:30:55.039Z,100208.44
2024-03-04T08:33:21.521Z,100214.22
2024-03-04T08:35:47.929Z,100214.28
2024-03-04T08:38:14.428Z,100223.84
2024-03-04T08:40:42.235Z,100223.69
2024-03-04T08:43:08.718Z,100228.16
2024-03-04T08:45:35.143Z,100224.84
2024-03-04T08:48:01.698Z,100222.19
2024-03-04T08:50:28.142Z,100227.69
2024-03-04T08:52:54.585Z,100230.81
2024-03-04T08:55:21.042Z,100225.56
2024-03-04T08:57:48.834Z,100222.34
2024-03-04T09:00:16.572Z,100226.09
2024-03-04T09:02:43.035Z,100227.88
2024-03-04T09:05:09.742Z,100232.63
2024-03-04T09:07:36.420Z,100228.38
2024-03-04T09:10:03.172Z,100224.28
2024-03-04T09:12:29.618Z,100225.88
2024-03-04T09:14:57.357Z,100229.34
2024-03-04T09:17:23.846Z,100235.81
2024-03-04T09:19:50.350Z,100235.22
2024-03-04T09:22:16.884Z,100238.13
2024-03-04T09:24:43.640Z,100243.19
2024-03-04T09:27:10.785Z,100241.84
2024-03-04T09:29:37.317Z,100238.38
2024-03-04T09:32:06.559Z,100238.78
2024-03-04T09:34:33.065Z,100237.38
2024-03-04T09:36:59.530Z,100241.28
2024-03-04T09:39:25.919Z,100244.53
2024-03-04T09:41:53.824Z,100253.47
2024-03-04T09:44:20.776Z,100255.47
2024-03-04T09:46:48.505Z,100245.81
2024-03-04T09:49:18.480Z,100255.41
2024-03-04T09:51:46.342Z,100262.63
2024-03-04T09:54:14.807Z,100262.19
2024-03-04T09:56:41.400Z,100268.22
2024-03-04T09:59:07.882Z,100274.72
2024-03-04T10:01:35.101Z,100265.78
2024-03-04T10:04:01.858Z,100265.72
2024-03-04T10:06:29.695Z,100266.59
2024-03-04T10:08:56.149Z,100259.06
2024-03-04T10:11:22.590Z,100253.88
2024-03-04T10:13:51.227Z,100263.97
2024-03-04T10:16:17.676Z,100267.41
2024-03-04T10:18:59.499Z,100270.91
2024-03-04T10:21:29.354Z,100278.78
2024-03-04T10:23:57.972Z,100280.84
2024-03-04T10:26:24.560Z,100284.22
2024-03-04T10:28:52.867Z,100287.81
2024-03-04T10:31:19.417Z,100295.47
2024-03-04T10:33:45.921Z,100292.53
2024-03-04T10:36:16.963Z,100291.84
2024-03-04T10:38:46.294Z,100295.09
2024-03-04T10:41:19.817Z,100295.72
2024-03-04T10:43:47.454Z,100285.97
2024-03-04T10:46:15.958Z,100288.28
2024-03-04T10:48:42.630Z,100292.91
2024-03-04T10:51:09.142Z,100296.59
2024-03-04T10:53:35.698Z,100293.75
2024-03-04T10:56:05.919Z,100294.84
2024-03-04T10:58:33.449Z,100303.03
2024-03-04T11:01:04.747Z,100290.75
2024-03-04T11:03:31.716Z,100293.59
2024-03-04T11:06:00.478Z,100291.22
2024-03-04T11:08:31.064Z,100296.72
2024-03-04T11:11:03.785Z,100293.44
2024-03-04T11:13:37.104Z,100295.22
2024-03-04T11:16:08.514Z,100304.56
2024-03-04T11:18:46.113Z,100306.25
2024-03-04T11:21:13.557Z,100302.69
2024-03-04T11:23:40.154Z,100304.47
2024-03-04T11:26:08.147Z,100289.63
2024-03-04T11:28:40.200Z,100297.28
2024-03-04T11:31:10.738Z,100288.94
2024-03-04T11:33:41.262Z,100295.34
2024-03-04T11:36:08.861Z,100298.44
2024-03-04T11:38:40.429Z,100300.75
2024-03-04T11:41:06.978Z,100307.03
2024-03-04T11:43:45.101Z,100301.88
2024-03-04T11:46:13.202Z,100292.56
2024-03-04T11:48:39.804Z,100300.53
2024-03-04T11:51:06.715Z,100298.31
2024-03-04T11:53:33.232Z,100302.56
2024-03-04T11:55:59.639Z,100301.75
2024-03-04T11:58:26.074Z,100289.94
2024-03-04T12:01:00.929Z,100291.25
2024-03-04T12:03:34.510Z,100299.16
2024-03-04T12:06:00.981Z,100302.56
2024-03-04T12:08:42.590Z,100298.28
2024-03-04T12:11:13.934Z,100307.78
2024-03-04T12:13:40.512Z,100303.00
2024-03-04T12:16:08.390Z,100305.38
2024-03-04T12:18:34.818Z,100311.56
2024-03-04T12:21:04.784Z,100314.31
2024-03-04T12:23:31.253Z,100311.22
2024-03-04T12:26:09.996Z,100306.50
2024-03-04T12:28:36.528Z,100315.47
2024-03-04T12:31:10.786Z,100317.28
2024-03-04T12:33:37.229Z,100320.66
2024-03-04T12:36:04.331Z,100321.88
2024-03-04T12:38:31.169Z,100318.13
2024-03-04T12:40:57.622Z,100312.53
2024-03-04T12:43:24.049Z,100319.94
2024-03-04T12:45:50.891Z,100327.56
2024-03-04T12:48:19.708Z,100332.84
2024-03-04T12:50:46.584Z,100327.69
2024-03-04T12:53:13.016Z,100330.47
2024-03-04T12:55:39.812Z,100329.66
2024-03-04T12:58:06.279Z,100327.28
2024-03-04T13:00:32.758Z,100323.34
2024-03-04T13:02:59.166Z,100330.75
2024-03-04T13:05:26.944Z,100332.38
2024-03-04T13:07:53.674Z,100344.22
2024-03-04T13:10:20.170Z,100338.50
2024-03-04T13:12:46.601Z,100345.88
2024-03-04T13:15:13.319Z,100339.28
2024-03-04T13:17:40.907Z,100340.88
2024-03-04T13:20:09.450Z,100342.47
2024-03-04T13:22:37.421Z,100343.84
2024-03-04T13:25:04.199Z,100354.00
2024-03-04T13:27:30.637Z,100351.41
2024-03-04T13:29:57.066Z,100351.03
2024-03-04T13:32:23.678Z,100345.19
2024-03-04T13:34:50.277Z,100346.16
2024-03-04T13:37:16.896Z,100355.69
2024-03-04T13:39:44.729Z,100345.41
2024-03-04T13:42:11.581Z,100349.81
2024-03-04T13:44:38.810Z,100353.84
2024-03-04T13:47:05.967Z,100351.16
2024-03-04T13:49:32.447Z,100357.28
2024-03-04T13:51:58.899Z,100354.91
2024-03-04T13:54:25.325Z,100353.34
2024-03-04T13:56:53.180Z,100347.47
2024-03-04T13:59:19.624Z,100352.78
2024-03-04T14:01:46.779Z,100345.72
2024-03-04T14:04:13.334Z,100348.31
2024-03-04T14:06:40.330Z,100353.09
2024-03-04T14:09:06.859Z,100361.34
2024-03-04T14:11:33.343Z,100357.19
2024-03-04T14:14:01.114Z,100346.28
2024-03-04T14:16:27.622Z,100343.31
2024-03-04T14:18:54.081Z,100345.75
2024-03-04T14:21:20.595Z,100349.34
2024-03-04T14:23:46.998Z,100346.06
2024-03-04T14:26:14.772Z,100343.81
2024-03-04T14:28:41.268Z,100337.00
2024-03-04T14:31:09.053Z,100343.88
2024-03-04T14:33:35.543Z,100350.41
2024-03-04T14:36:02.127Z,100354.09
2024-03-04T14:38:28.580Z,100352.25
2024-03-04T14:40:58.503Z,100358.16
2024-03-04T14:43:25.375Z,100346.81
2024-03-04T14:45:51.783Z,100354.06
2024-03-04T14:48:19.566Z,100355.09
2024-03-04T14:50:46.005Z,100354.59
2024-03-04T14:53:12.476Z,100355.22
2024-03-04T14:55:38.921Z,100358.34
2024-03-04T14:58:05.481Z,100363.72
2024-03-04T15:00:31.990Z,100365.06
2024-03-04T15:02:58.527Z,100363.09
2024-03-04T15:05:26.302Z,100368.56
2024-03-04T15:07:52.853Z,100366.19
2024-03-04T15:10:19.394Z,100363.91
2024-03-04T15:12:45.924Z,100371.16
2024-03-04T15:15:13.489Z,100367.91
2024-03-04T15:17:39.947Z,100374.38
2024-03-04T15:20:07.724Z,100377.03
2024-03-04T15:22:35.504Z,100377.28
2024-03-04T15:25:01.946Z,100375.31
2024-03-04T15:27:28.361Z,100374.13
2024-03-04T15:29:54.812Z,100376.91
2024-03-04T15:32:21.271Z,100382.84
2024-03-04T15:34:47.850Z,100377.53
2024-03-04T15:37:14.366Z,100383.22
2024-03-04T15:39:42.138Z,100383.28
2024-03-04T15:42:08.801Z,100379.66
2024-03-04T15:44:35.190Z,100385.53
2024-03-04T15:47:01.658Z,100382.44
2024-03-04T15:49:28.147Z,100375.31
2024-03-04T15:51:54.588Z,100380.25
2024-03-04T15:54:20.998Z,100381.34
2024-03-04T15:56:48.778Z,100377.06
2024-03-04T15:59:15.424Z,100380.66
2024-03-04T16:01:41.886Z,100386.06
2024-03-04T16:04:08.415Z,100383.47
2024-03-04T16:06:35.077Z,100378.16
2024-03-04T16:09:01.584Z,100395.81
2024-03-04T16:11:28.045Z,100390.75
2024-03-04T16:13:55.818Z,100391.66
2024-03-04T16:16:22.259Z,100388.06
2024-03-04T16:18:48.736Z,100390.00
2024-03-04T16:21:15.295Z,100393.72
2024-03-04T16:23:41.794Z,100396.81
2024-03-04T16:26:08.375Z,100399.41
2024-03-04T16:28:35.032Z,100404.25
2024-03-04T16:31:05.496Z,100401.88
2024-03-04T16:33:32.097Z,100399.84
2024-03-04T16:35:58.468Z,100394.56
2024-03-04T16:38:24.910Z,100402.91
2024-03-04T16:40:51.475Z,100408.97
2024-03-04T16:43:17.931Z,100406.66
2024-03-04T16:45:44.447Z,100409.97
2024-03-04T16:48:12.315Z,100406.13
2024-03-04T16:50:38.803Z,100403.78
2024-03-04T16:53:05.203Z,100403.97
2024-03-04T16:55:34.604Z,100410.97
2024-03-04T16:58:01.485Z,100409.63
2024-03-04T17:00:27.929Z,100409.31
2024-03-04T17:02:54.488Z,100411.06
2024-03-04T17:05:22.225Z,100416.13
2024-03-04T17:07:49.630Z,100413.75
2024-03-04T17:10:16.784Z,100415.25
2024-03-04T17:12:43.627Z,100417.94
2024-03-04T17:15:10.618Z,100431.34
2024-03-04T17:17:37.421Z,100429.50
2024-03-04T17:20:04.465Z,100438.22
2024-03-04T17:22:32.225Z,100438.19
2024-03-04T17:24:58.777Z,100445.38
2024-03-04T17:27:25.171Z,100443.31
2024-03-04T17:29:51.575Z,100447.81
2024-03-04T17:32:18.018Z,100445.94
2024-03-04T17:34:44.623Z,100450.00
2024-03-04T17:37:11.158Z,100462.78
2024-03-04T17:39:38.932Z,100458.44
2024-03-04T17:42:05.682Z,100452.72
2024-03-04T17:44:32.095Z,100448.84
2024-03-04T17:46:58.529Z,100452.88
2024-03-04T17:49:24.982Z,100452.63
2024-03-04T17:51:51.398Z,100452.78
2024-03-04T17:54:17.805Z,100456.97
2024-03-04T17:56:47.123Z,100456.19
2024-03-04T17:59:13.714Z,100457.72
2024-03-04T18:01:40.234Z,100460.91
2024-03-04T18:04:06.725Z,100472.53
2024-03-04T18:06:33.203Z,100461.31
2024-03-04T18:08:59.669Z,100469.84
2024-03-04T18:11:26.576Z,100468.38
2024-03-04T18:13:54.422Z,100470.53
2024-03-04T18:16:20.954Z,100469.91
2024-03-04T18:18:47.453Z,100471.56
2024-03-04T18:21:13.876Z,100468.91
2024-03-04T18:23:40.283Z,100476.91
2024-03-04T18:26:07.923Z,100470.56
2024-03-04T18:28:35.173Z,100473.84
2024-03-04T18:31:03.300Z,100471.41
2024-03-04T18:33:29.978Z,100474.03
2024-03-04T18:35:56.613Z,100472.78
2024-03-04T18:38:23.086Z,100468.19
2024-03-04T18:40:49.620Z,100478.38
2024-03-04T18:43:16.265Z,100470.06
2024-03-04T18:45:42.932Z,100474.69
2024-03-04T18:48:10.776Z,100481.25
2024-03-04T18:50:37.238Z,100473.03
2024-03-04T18:53:03.968Z,100482.94
2024-03-04T18:55:30.406Z,100485.56
2024-03-04T18:57:56.867Z,100486.00
2024-03-04T19:00:23.499Z,100486.19
2024-03-04T19:02:49.937Z,100483.50
2024-03-04T19:05:17.699Z,100485.56
2024-03-04T19:07:44.175Z,100478.28
2024-03-04T19:10:10.716Z,100483.81
2024-03-04T19:12:37.714Z,100488.66
2024-03-04T19:15:05.006Z,100484.22
2024-03-04T19:17:31.522Z,100494.63
2024-03-04T19:19:58.496Z,100495.66
2024-03-04T19:22:26.396Z,100495.81
2024-03-04T19:24:52.832Z,100498.81
2024-03-04T19:27:19.235Z,100490.91
2024-03-04T19:29:45.709Z,100501.06
2024-03-04T19:32:12.151Z,100504.84
2024-03-04T19:34:38.680Z,100507.31
2024-03-04T19:37:05.136Z,100505.63
2024-03-04T19:39:32.853Z,100501.69
2024-03-04T19:42:01.148Z,100500.69
2024-03-04T19:44:28.833Z,100509.00
2024-03-04T19:46:55.430Z,100509.13
2024-03-04T19:49:21.931Z,100512.91
2024-03-04T19:51:48.411Z,100510.81
2024-03-04T19:54:14.833Z,100509.78
2024-03-04T19:56:42.566Z,100502.81
2024-03-04T19:59:09.377Z,100508.41
2024-03-04T20:01:35.829Z,100512.28
2024-03-04T20:04:02.399Z,100504.25
2024-03-04T20:06:28.829Z,100507.25
2024-03-04T20:08:55.268Z,100503.25
2024-03-04T20:11:21.774Z,100512.28
2024-03-04T20:13:49.744Z,100518.63
2024-03-04T20:16:16.974Z,100507.34
2024-03-04T20:18:43.724Z,100509.22
2024-03-04T20:21:10.745Z,100504.97
2024-03-04T20:23:37.289Z,100500.19
2024-03-04T20:26:04.119Z,100495.94
2024-03-04T20:28:32.283Z,100499.59
2024-03-04T20:31:01.369Z,100496.06
2024-03-04T20:33:27.850Z,100501.28
2024-03-04T20:35:54.249Z,100496.56
2024-03-04T20:38:20.681Z,100489.78
2024-03-04T20:40:47.195Z,100498.50
2024-03-04T20:43:14.139Z,100496.56
2024-03-04T20:45:40.965Z,100501.81
2024-03-04T20:48:09.836Z,100503.34
2024-03-04T20:50:36.840Z,100508.00
2024-03-04T20:53:03.781Z,100502.72
2024-03-04T20:55:30.446Z,100502.66
2024-03-04T20:57:56.940Z,100507.59
2024-03-04T21:00:23.396Z,100516.25
2024-03-04T21:02:51.082Z,100512.81
2024-03-04T21:05:20.410Z,100512.78
2024-03-04T21:07:48.225Z,100521.84
2024-03-04T21:10:17.275Z,100522.38
2024-03-04T21:12:44.282Z,100525.56
2024-03-04T21:15:11.383Z,100527.28
2024-03-04T21:17:38.150Z,100530.56
2024-03-04T21:20:05.483Z,100527.13
2024-03-04T21:22:33.266Z,100525.06
2024-03-04T21:24:59.702Z,100523.69
2024-03-04T21:27:26.168Z,100525.25
2024-03-04T21:29:52.608Z,100520.59
2024-03-04T21:32:19.009Z,100523.28
2024-03-04T21:34:45.469Z,100529.56
2024-03-04T21:37:20.893Z,100529.94
2024-03-04T21:39:52.232Z,100535.31
2024-03-04T21:42:18.852Z,100526.94
2024-03-04T21:44:46.218Z,100525.19
2024-03-04T21:47:12.683Z,100530.44
2024-03-04T21:49:39.542Z,100527.84
2024-03-04T21:52:06.414Z,100529.16
2024-03-04T21:54:32.854Z,100531.19
2024-03-04T21:57:01.168Z,100526.06
2024-03-04T21:59:28.005Z,100523.00
2024-03-04T22:01:54.512Z,100528.94
2024-03-04T22:04:22.688Z,100526.06
2024-03-04T22:06:49.206Z,100524.00
2024-03-04T22:09:15.924Z,100526.47
2024-03-04T22:11:46.671Z,100519.13
2024-03-04T22:14:15.589Z,100522.97
2024-03-04T22:16:42.904Z,100522.66
2024-03-04T22:19:10.192Z,100526.41
2024-03-04T22:21:36.920Z,100522.28
2024-03-04T22:24:03.937Z,100526.03
2024-03-04T22:26:30.833Z,100526.28
2024-03-04T22:28:57.951Z,100528.44
2024-03-04T22:31:25.744Z,100522.72
2024-03-04T22:33:52.155Z,100523.97
2024-03-04T22:36:19.126Z,100520.72
2024-03-04T22:38:45.558Z,100517.19
2024-03-04T22:41:12.075Z,100513.13
2024-03-04T22:43:38.673Z,100516.16
2024-03-04T22:46:05.157Z,100519.16
2024-03-04T22:48:33.266Z,100517.75
2024-03-04T22:50:59.830Z,100514.28
2024-03-04T22:53:26.265Z,100519.91
2024-03-04T22:55:52.675Z,100528.22
2024-03-04T22:58:19.156Z,100528.78
2024-03-04T23:00:46.072Z,100531.81
2024-03-04T23:03:12.528Z,100529.59
2024-03-04T23:05:41.135Z,100530.66
2024-03-04T23:08:08.028Z,100533.19
2024-03-04T23:10:34.625Z,100525.44
2024-03-04T23:13:01.148Z,100532.34
2024-03-04T23:15:28.758Z,100536.88
2024-03-04T23:17:55.189Z,100537.34
2024-03-04T23:20:21.627Z,100531.22
2024-03-04T23:22:49.467Z,100533.66
2024-03-04T23:25:16.532Z,100535.75
2024-03-04T23:27:43.068Z,100546.03
2024-03-04T23:30:10.745Z,100546.72
2024-03-04T23:32:37.726Z,100545.72
2024-03-04T23:35:05.020Z,100550.50
2024-03-04T23:37:31.473Z,100555.59
2024-03-04T23:39:59.233Z,100557.13
2024-03-04T23:42:25.685Z,100557.75
2024-03-04T23:44:52.104Z,100559.88
2024-03-04T23:47:18.508Z,100552.91
2024-03-04T23:49:44.913Z,100559.88
2024-03-04T23:52:11.327Z,100556.84
2024-03-04T23:54:37.717Z,100559.81
2024-03-04T23:57:05.482Z,100557.97
2024-03-04T23:59:31.861Z,100558.03
